sensor_id;sensor_type;location;lat;lon;timestamp;P1;durP1;ratioP1;P2;durP2;ratioP2
27857;SDS011;16852;51.446;6.528;2023-06-14T00:01:16;4.60;;;3.63;;
27857;SDS011;16852;51.446;6.528;2023-06-14T00:03:16;5.57;;;3.80;;
27857;SDS011;16852;51.446;6.528;2023-06-14T00:05:17;5.00;;;3.60;;
27857;SDS011;16852;51.446;6.528;2023-06-14T00:07:20;4.65;;;3.58;;
27857;SDS011;16852;51.446;6.528;2023-06-14T00:09:33;3.70;;;3.30;;
27857;SDS011;16852;51.446;6.528;2023-06-14T00:11:33;4.30;;;3.50;;
27857;SDS011;16852;51.446;6.528;2023-06-14T00:13:34;5.95;;;3.45;;
27857;SDS011;16852;51.446;6.528;2023-06-14T00:15:35;4.88;;;3.50;;
27857;SDS011;16852;51.446;6.528;2023-06-14T00:17:36;4.82;;;3.70;;
27857;SDS011;16852;51.446;6.528;2023-06-14T00:19:38;3.80;;;3.00;;
27857;SDS011;16852;51.446;6.528;2023-06-14T00:21:40;5.57;;;3.25;;
27857;SDS011;16852;51.446;6.528;2023-06-14T00:23:41;3.97;;;3.28;;
27857;SDS011;16852;51.446;6.528;2023-06-14T00:25:42;5.78;;;3.20;;
27857;SDS011;16852;51.446;6.528;2023-06-14T00:27:42;6.93;;;3.40;;
27857;SDS011;16852;51.446;6.528;2023-06-14T00:29:43;4.15;;;3.13;;
27857;SDS011;16852;51.446;6.528;2023-06-14T00:31:43;4.13;;;3.58;;
27857;SDS011;16852;51.446;6.528;2023-06-14T00:33:44;4.43;;;3.40;;
27857;SDS011;16852;51.446;6.528;2023-06-14T00:35:45;4.90;;;3.58;;
27857;SDS011;16852;51.446;6.528;2023-06-14T00:37:47;5.90;;;3.45;;
27857;SDS011;16852;51.446;6.528;2023-06-14T00:39:47;4.97;;;3.28;;
27857;SDS011;16852;51.446;6.528;2023-06-14T00:41:48;4.05;;;3.55;;
27857;SDS011;16852;51.446;6.528;2023-06-14T00:43:48;4.15;;;3.47;;
27857;SDS011;16852;51.446;6.528;2023-06-14T00:45:49;7.30;;;3.83;;
27857;SDS011;16852;51.446;6.528;2023-06-14T00:47:51;4.38;;;3.15;;
27857;SDS011;16852;51.446;6.528;2023-06-14T00:49:55;4.53;;;3.40;;
27857;SDS011;16852;51.446;6.528;2023-06-14T00:51:56;6.25;;;3.83;;
27857;SDS011;16852;51.446;6.528;2023-06-14T00:53:57;5.50;;;3.40;;
27857;SDS011;16852;51.446;6.528;2023-06-14T00:55:57;4.07;;;3.10;;
27857;SDS011;16852;51.446;6.528;2023-06-14T00:57:58;4.32;;;3.08;;
27857;SDS011;16852;51.446;6.528;2023-06-14T00:59:59;5.90;;;3.38;;
27857;SDS011;16852;51.446;6.528;2023-06-14T01:02:00;5.80;;;3.80;;
27857;SDS011;16852;51.446;6.528;2023-06-14T01:04:00;4.28;;;3.38;;
27857;SDS011;16852;51.446;6.528;2023-06-14T01:08:23;5.72;;;3.97;;
27857;SDS011;16852;51.446;6.528;2023-06-14T01:10:31;5.40;;;3.45;;
27857;SDS011;16852;51.446;6.528;2023-06-14T01:15:12;5.85;;;3.60;;
27857;SDS011;16852;51.446;6.528;2023-06-14T01:17:13;5.78;;;4.10;;
27857;SDS011;16852;51.446;6.528;2023-06-14T01:19:16;4.55;;;3.25;;
27857;SDS011;16852;51.446;6.528;2023-06-14T01:21:24;4.72;;;3.75;;
27857;SDS011;16852;51.446;6.528;2023-06-14T01:23:25;7.80;;;3.97;;
27857;SDS011;16852;51.446;6.528;2023-06-14T01:25:32;6.43;;;4.15;;
27857;SDS011;16852;51.446;6.528;2023-06-14T01:27:32;5.68;;;3.50;;
27857;SDS011;16852;51.446;6.528;2023-06-14T01:29:37;7.05;;;3.95;;
27857;SDS011;16852;51.446;6.528;2023-06-14T01:31:39;6.47;;;3.60;;
27857;SDS011;16852;51.446;6.528;2023-06-14T01:33:41;5.53;;;3.90;;
27857;SDS011;16852;51.446;6.528;2023-06-14T01:35:44;7.40;;;4.07;;
27857;SDS011;16852;51.446;6.528;2023-06-14T01:37:47;5.63;;;3.80;;
27857;SDS011;16852;51.446;6.528;2023-06-14T01:39:48;7.88;;;4.00;;
27857;SDS011;16852;51.446;6.528;2023-06-14T01:41:50;6.25;;;4.18;;
27857;SDS011;16852;51.446;6.528;2023-06-14T01:43:52;6.35;;;4.13;;
27857;SDS011;16852;51.446;6.528;2023-06-14T01:45:54;5.35;;;3.90;;
27857;SDS011;16852;51.446;6.528;2023-06-14T01:47:56;4.05;;;3.47;;
27857;SDS011;16852;51.446;6.528;2023-06-14T01:49:57;6.90;;;3.80;;
27857;SDS011;16852;51.446;6.528;2023-06-14T01:51:58;4.28;;;3.58;;
27857;SDS011;16852;51.446;6.528;2023-06-14T01:53:58;6.68;;;4.43;;
27857;SDS011;16852;51.446;6.528;2023-06-14T01:56:00;5.20;;;3.33;;
27857;SDS011;16852;51.446;6.528;2023-06-14T01:58:01;4.63;;;3.72;;
27857;SDS011;16852;51.446;6.528;2023-06-14T02:00:02;4.78;;;3.40;;
27857;SDS011;16852;51.446;6.528;2023-06-14T02:02:04;10.25;;;3.72;;
27857;SDS011;16852;51.446;6.528;2023-06-14T02:04:05;5.95;;;3.97;;
27857;SDS011;16852;51.446;6.528;2023-06-14T02:06:05;6.15;;;3.85;;
27857;SDS011;16852;51.446;6.528;2023-06-14T02:08:06;5.90;;;3.63;;
27857;SDS011;16852;51.446;6.528;2023-06-14T02:10:07;5.22;;;3.58;;
27857;SDS011;16852;51.446;6.528;2023-06-14T02:12:08;4.88;;;3.70;;
27857;SDS011;16852;51.446;6.528;2023-06-14T02:16:11;4.35;;;3.15;;
27857;SDS011;16852;51.446;6.528;2023-06-14T02:18:12;4.60;;;2.95;;
27857;SDS011;16852;51.446;6.528;2023-06-14T02:20:13;4.60;;;3.40;;
27857;SDS011;16852;51.446;6.528;2023-06-14T02:22:15;4.72;;;3.50;;
27857;SDS011;16852;51.446;6.528;2023-06-14T02:24:16;6.45;;;3.35;;
27857;SDS011;16852;51.446;6.528;2023-06-14T02:26:16;5.18;;;3.30;;
27857;SDS011;16852;51.446;6.528;2023-06-14T02:28:17;5.60;;;3.30;;
27857;SDS011;16852;51.446;6.528;2023-06-14T02:30:17;4.10;;;2.95;;
27857;SDS011;16852;51.446;6.528;2023-06-14T02:32:18;5.55;;;3.53;;
27857;SDS011;16852;51.446;6.528;2023-06-14T02:34:19;5.95;;;3.47;;
27857;SDS011;16852;51.446;6.528;2023-06-14T02:38:22;5.35;;;3.33;;
27857;SDS011;16852;51.446;6.528;2023-06-14T02:40:22;5.22;;;3.85;;
27857;SDS011;16852;51.446;6.528;2023-06-14T02:42:23;6.13;;;3.78;;
27857;SDS011;16852;51.446;6.528;2023-06-14T02:44:24;6.63;;;3.75;;
27857;SDS011;16852;51.446;6.528;2023-06-14T02:46:27;5.32;;;3.80;;
27857;SDS011;16852;51.446;6.528;2023-06-14T02:48:27;6.50;;;3.40;;
27857;SDS011;16852;51.446;6.528;2023-06-14T02:50:28;4.47;;;3.65;;
27857;SDS011;16852;51.446;6.528;2023-06-14T02:52:30;6.45;;;3.22;;
27857;SDS011;16852;51.446;6.528;2023-06-14T02:54:33;7.57;;;3.38;;
27857;SDS011;16852;51.446;6.528;2023-06-14T02:56:33;5.18;;;3.33;;
27857;SDS011;16852;51.446;6.528;2023-06-14T02:58:36;4.03;;;3.13;;
27857;SDS011;16852;51.446;6.528;2023-06-14T03:00:36;5.70;;;3.17;;
27857;SDS011;16852;51.446;6.528;2023-06-14T03:02:38;5.70;;;3.20;;
27857;SDS011;16852;51.446;6.528;2023-06-14T03:04:39;4.90;;;3.13;;
27857;SDS011;16852;51.446;6.528;2023-06-14T03:06:39;6.10;;;3.50;;
27857;SDS011;16852;51.446;6.528;2023-06-14T03:08:40;4.10;;;3.30;;
27857;SDS011;16852;51.446;6.528;2023-06-14T03:10:41;6.03;;;3.88;;
27857;SDS011;16852;51.446;6.528;2023-06-14T03:12:51;5.47;;;2.97;;
27857;SDS011;16852;51.446;6.528;2023-06-14T03:14:52;4.20;;;3.30;;
27857;SDS011;16852;51.446;6.528;2023-06-14T03:16:53;4.70;;;3.45;;
27857;SDS011;16852;51.446;6.528;2023-06-14T03:18:56;4.80;;;3.38;;
27857;SDS011;16852;51.446;6.528;2023-06-14T03:20:57;4.90;;;3.03;;
27857;SDS011;16852;51.446;6.528;2023-06-14T03:23:04;5.60;;;3.50;;
27857;SDS011;16852;51.446;6.528;2023-06-14T03:25:05;5.55;;;3.63;;
27857;SDS011;16852;51.446;6.528;2023-06-14T03:27:06;5.38;;;3.28;;
27857;SDS011;16852;51.446;6.528;2023-06-14T03:29:09;5.60;;;3.50;;
27857;SDS011;16852;51.446;6.528;2023-06-14T03:31:10;7.95;;;3.85;;
27857;SDS011;16852;51.446;6.528;2023-06-14T03:33:11;5.97;;;3.90;;
27857;SDS011;16852;51.446;6.528;2023-06-14T03:35:12;5.60;;;3.65;;
27857;SDS011;16852;51.446;6.528;2023-06-14T03:37:17;7.20;;;3.75;;
27857;SDS011;16852;51.446;6.528;2023-06-14T03:39:17;6.63;;;3.42;;
27857;SDS011;16852;51.446;6.528;2023-06-14T03:41:18;5.13;;;3.13;;
27857;SDS011;16852;51.446;6.528;2023-06-14T03:43:19;5.78;;;3.50;;
27857;SDS011;16852;51.446;6.528;2023-06-14T03:45:19;4.95;;;3.40;;
27857;SDS011;16852;51.446;6.528;2023-06-14T03:47:20;6.78;;;3.10;;
27857;SDS011;16852;51.446;6.528;2023-06-14T03:49:21;4.57;;;3.33;;
27857;SDS011;16852;51.446;6.528;2023-06-14T03:51:22;4.90;;;3.13;;
27857;SDS011;16852;51.446;6.528;2023-06-14T03:53:22;4.80;;;3.25;;
27857;SDS011;16852;51.446;6.528;2023-06-14T03:55:23;6.25;;;3.40;;
27857;SDS011;16852;51.446;6.528;2023-06-14T03:57:25;4.88;;;2.90;;
27857;SDS011;16852;51.446;6.528;2023-06-14T03:59:26;6.03;;;3.30;;
27857;SDS011;16852;51.446;6.528;2023-06-14T04:01:27;5.82;;;3.50;;
27857;SDS011;16852;51.446;6.528;2023-06-14T04:03:29;5.75;;;3.38;;
27857;SDS011;16852;51.446;6.528;2023-06-14T04:05:30;5.00;;;3.20;;
27857;SDS011;16852;51.446;6.528;2023-06-14T04:07:31;5.05;;;2.95;;
27857;SDS011;16852;51.446;6.528;2023-06-14T04:09:31;5.22;;;3.25;;
27857;SDS011;16852;51.446;6.528;2023-06-14T04:11:32;5.97;;;3.38;;
27857;SDS011;16852;51.446;6.528;2023-06-14T04:13:33;5.40;;;3.28;;
27857;SDS011;16852;51.446;6.528;2023-06-14T04:15:35;11.57;;;3.72;;
27857;SDS011;16852;51.446;6.528;2023-06-14T04:17:37;6.00;;;3.25;;
27857;SDS011;16852;51.446;6.528;2023-06-14T04:19:38;5.45;;;3.22;;
27857;SDS011;16852;51.446;6.528;2023-06-14T04:21:39;4.38;;;2.88;;
27857;SDS011;16852;51.446;6.528;2023-06-14T04:23:39;5.93;;;3.35;;
27857;SDS011;16852;51.446;6.528;2023-06-14T04:25:44;5.72;;;3.30;;
27857;SDS011;16852;51.446;6.528;2023-06-14T04:27:48;8.70;;;3.50;;
27857;SDS011;16852;51.446;6.528;2023-06-14T04:29:49;5.95;;;3.20;;
27857;SDS011;16852;51.446;6.528;2023-06-14T04:31:56;5.30;;;3.13;;
27857;SDS011;16852;51.446;6.528;2023-06-14T04:33:59;7.30;;;3.20;;
27857;SDS011;16852;51.446;6.528;2023-06-14T04:35:59;4.88;;;2.80;;
27857;SDS011;16852;51.446;6.528;2023-06-14T04:38:00;4.50;;;3.03;;
27857;SDS011;16852;51.446;6.528;2023-06-14T04:40:01;5.72;;;3.38;;
27857;SDS011;16852;51.446;6.528;2023-06-14T04:42:05;5.03;;;2.97;;
27857;SDS011;16852;51.446;6.528;2023-06-14T04:44:07;4.85;;;3.10;;
27857;SDS011;16852;51.446;6.528;2023-06-14T04:46:07;5.38;;;3.28;;
27857;SDS011;16852;51.446;6.528;2023-06-14T04:48:10;5.10;;;2.85;;
27857;SDS011;16852;51.446;6.528;2023-06-14T04:50:12;5.78;;;3.35;;
27857;SDS011;16852;51.446;6.528;2023-06-14T04:52:13;5.10;;;3.08;;
27857;SDS011;16852;51.446;6.528;2023-06-14T04:54:13;6.03;;;3.33;;
27857;SDS011;16852;51.446;6.528;2023-06-14T04:56:14;4.40;;;2.90;;
27857;SDS011;16852;51.446;6.528;2023-06-14T04:58:16;5.03;;;2.90;;
27857;SDS011;16852;51.446;6.528;2023-06-14T05:00:17;7.18;;;2.88;;
27857;SDS011;16852;51.446;6.528;2023-06-14T05:02:18;4.70;;;3.40;;
27857;SDS011;16852;51.446;6.528;2023-06-14T05:04:18;4.03;;;2.67;;
27857;SDS011;16852;51.446;6.528;2023-06-14T05:06:19;4.50;;;2.92;;
27857;SDS011;16852;51.446;6.528;2023-06-14T05:08:21;5.18;;;2.97;;
27857;SDS011;16852;51.446;6.528;2023-06-14T05:10:24;8.60;;;3.35;;
27857;SDS011;16852;51.446;6.528;2023-06-14T05:12:25;9.30;;;3.65;;
27857;SDS011;16852;51.446;6.528;2023-06-14T05:14:26;6.93;;;3.50;;
27857;SDS011;16852;51.446;6.528;2023-06-14T05:16:26;4.97;;;3.20;;
27857;SDS011;16852;51.446;6.528;2023-06-14T05:18:27;11.75;;;3.33;;
27857;SDS011;16852;51.446;6.528;2023-06-14T05:20:28;5.47;;;3.03;;
27857;SDS011;16852;51.446;6.528;2023-06-14T05:22:28;7.80;;;2.88;;
27857;SDS011;16852;51.446;6.528;2023-06-14T05:24:30;5.38;;;2.72;;
27857;SDS011;16852;51.446;6.528;2023-06-14T05:26:32;6.22;;;3.47;;
27857;SDS011;16852;51.446;6.528;2023-06-14T05:28:33;5.57;;;2.75;;
27857;SDS011;16852;51.446;6.528;2023-06-14T05:30:34;3.92;;;2.83;;
27857;SDS011;16852;51.446;6.528;2023-06-14T05:32:34;4.80;;;3.00;;
27857;SDS011;16852;51.446;6.528;2023-06-14T05:34:35;4.05;;;2.50;;
27857;SDS011;16852;51.446;6.528;2023-06-14T05:36:35;7.20;;;3.10;;
27857;SDS011;16852;51.446;6.528;2023-06-14T05:38:36;6.40;;;3.60;;
27857;SDS011;16852;51.446;6.528;2023-06-14T05:40:37;5.45;;;3.50;;
27857;SDS011;16852;51.446;6.528;2023-06-14T05:42:38;9.25;;;3.17;;
27857;SDS011;16852;51.446;6.528;2023-06-14T05:44:38;5.75;;;3.20;;
27857;SDS011;16852;51.446;6.528;2023-06-14T05:46:39;5.90;;;3.10;;
27857;SDS011;16852;51.446;6.528;2023-06-14T05:48:40;5.43;;;2.95;;
27857;SDS011;16852;51.446;6.528;2023-06-14T05:50:40;7.22;;;2.83;;
27857;SDS011;16852;51.446;6.528;2023-06-14T05:52:41;6.05;;;3.33;;
27857;SDS011;16852;51.446;6.528;2023-06-14T05:54:41;7.70;;;3.45;;
27857;SDS011;16852;51.446;6.528;2023-06-14T05:56:42;5.45;;;3.65;;
27857;SDS011;16852;51.446;6.528;2023-06-14T05:58:43;6.97;;;3.25;;
27857;SDS011;16852;51.446;6.528;2023-06-14T06:00:45;3.70;;;2.47;;
27857;SDS011;16852;51.446;6.528;2023-06-14T06:02:46;6.60;;;3.33;;
27857;SDS011;16852;51.446;6.528;2023-06-14T06:04:47;8.48;;;2.95;;
27857;SDS011;16852;51.446;6.528;2023-06-14T06:06:48;6.88;;;3.40;;
27857;SDS011;16852;51.446;6.528;2023-06-14T06:08:49;5.82;;;3.13;;
27857;SDS011;16852;51.446;6.528;2023-06-14T06:10:50;5.90;;;3.10;;
27857;SDS011;16852;51.446;6.528;2023-06-14T06:12:50;8.40;;;3.05;;
27857;SDS011;16852;51.446;6.528;2023-06-14T06:14:52;5.07;;;2.97;;
27857;SDS011;16852;51.446;6.528;2023-06-14T06:16:53;4.47;;;2.90;;
27857;SDS011;16852;51.446;6.528;2023-06-14T06:18:54;5.60;;;3.03;;
27857;SDS011;16852;51.446;6.528;2023-06-14T06:20:54;6.63;;;3.40;;
27857;SDS011;16852;51.446;6.528;2023-06-14T06:22:55;6.63;;;2.72;;
27857;SDS011;16852;51.446;6.528;2023-06-14T06:24:56;4.75;;;2.60;;
27857;SDS011;16852;51.446;6.528;2023-06-14T06:26:57;3.83;;;2.53;;
27857;SDS011;16852;51.446;6.528;2023-06-14T06:28:58;2.72;;;2.00;;
27857;SDS011;16852;51.446;6.528;2023-06-14T06:30:59;4.43;;;2.45;;
27857;SDS011;16852;51.446;6.528;2023-06-14T06:32:59;5.95;;;2.80;;
27857;SDS011;16852;51.446;6.528;2023-06-14T06:35:00;4.38;;;2.80;;
27857;SDS011;16852;51.446;6.528;2023-06-14T06:37:01;4.40;;;2.70;;
27857;SDS011;16852;51.446;6.528;2023-06-14T06:39:01;5.55;;;2.78;;
27857;SDS011;16852;51.446;6.528;2023-06-14T06:41:09;4.32;;;2.90;;
27857;SDS011;16852;51.446;6.528;2023-06-14T06:43:09;3.67;;;2.67;;
27857;SDS011;16852;51.446;6.528;2023-06-14T06:45:13;6.05;;;2.72;;
27857;SDS011;16852;51.446;6.528;2023-06-14T06:47:14;3.83;;;2.20;;
27857;SDS011;16852;51.446;6.528;2023-06-14T06:49:14;4.50;;;2.30;;
27857;SDS011;16852;51.446;6.528;2023-06-14T06:51:15;9.80;;;2.90;;
27857;SDS011;16852;51.446;6.528;2023-06-14T06:53:15;4.13;;;2.08;;
27857;SDS011;16852;51.446;6.528;2023-06-14T06:57:18;4.20;;;2.28;;
27857;SDS011;16852;51.446;6.528;2023-06-14T06:59:19;5.15;;;2.55;;
27857;SDS011;16852;51.446;6.528;2023-06-14T07:01:21;3.88;;;2.30;;
27857;SDS011;16852;51.446;6.528;2023-06-14T07:03:21;5.68;;;2.10;;
27857;SDS011;16852;51.446;6.528;2023-06-14T07:05:23;5.05;;;2.15;;
27857;SDS011;16852;51.446;6.528;2023-06-14T07:07:24;6.72;;;2.38;;
27857;SDS011;16852;51.446;6.528;2023-06-14T07:09:24;6.28;;;2.70;;
27857;SDS011;16852;51.446;6.528;2023-06-14T07:11:25;5.18;;;2.30;;
27857;SDS011;16852;51.446;6.528;2023-06-14T07:13:26;3.42;;;2.35;;
27857;SDS011;16852;51.446;6.528;2023-06-14T07:15:26;4.68;;;2.08;;
27857;SDS011;16852;51.446;6.528;2023-06-14T07:17:27;6.35;;;2.10;;
27857;SDS011;16852;51.446;6.528;2023-06-14T07:19:27;3.28;;;1.70;;
27857;SDS011;16852;51.446;6.528;2023-06-14T07:21:28;5.75;;;2.33;;
27857;SDS011;16852;51.446;6.528;2023-06-14T07:23:29;4.28;;;2.22;;
27857;SDS011;16852;51.446;6.528;2023-06-14T07:25:29;4.20;;;1.30;;
27857;SDS011;16852;51.446;6.528;2023-06-14T07:27:30;2.28;;;1.35;;
27857;SDS011;16852;51.446;6.528;2023-06-14T07:29:30;7.45;;;1.70;;
27857;SDS011;16852;51.446;6.528;2023-06-14T07:31:31;1.98;;;1.42;;
27857;SDS011;16852;51.446;6.528;2023-06-14T07:33:32;3.72;;;1.48;;
27857;SDS011;16852;51.446;6.528;2023-06-14T07:35:32;3.88;;;1.48;;
27857;SDS011;16852;51.446;6.528;2023-06-14T07:37:33;3.85;;;1.52;;
27857;SDS011;16852;51.446;6.528;2023-06-14T07:39:33;5.50;;;1.88;;
27857;SDS011;16852;51.446;6.528;2023-06-14T07:41:34;2.05;;;1.55;;
27857;SDS011;16852;51.446;6.528;2023-06-14T07:43:35;5.60;;;1.60;;
27857;SDS011;16852;51.446;6.528;2023-06-14T07:45:36;2.78;;;1.73;;
27857;SDS011;16852;51.446;6.528;2023-06-14T07:47:37;7.60;;;1.92;;
27857;SDS011;16852;51.446;6.528;2023-06-14T07:49:37;3.33;;;1.48;;
27857;SDS011;16852;51.446;6.528;2023-06-14T07:51:38;3.40;;;1.67;;
27857;SDS011;16852;51.446;6.528;2023-06-14T07:53:39;3.58;;;1.70;;
27857;SDS011;16852;51.446;6.528;2023-06-14T07:55:40;3.40;;;1.35;;
27857;SDS011;16852;51.446;6.528;2023-06-14T07:57:43;8.70;;;1.50;;
27857;SDS011;16852;51.446;6.528;2023-06-14T07:59:44;2.67;;;1.58;;
27857;SDS011;16852;51.446;6.528;2023-06-14T08:01:44;3.17;;;1.63;;
27857;SDS011;16852;51.446;6.528;2023-06-14T08:03:47;4.43;;;1.33;;
27857;SDS011;16852;51.446;6.528;2023-06-14T08:05:47;2.75;;;1.63;;
27857;SDS011;16852;51.446;6.528;2023-06-14T08:07:48;1.70;;;1.30;;
27857;SDS011;16852;51.446;6.528;2023-06-14T08:09:49;2.83;;;1.60;;
27857;SDS011;16852;51.446;6.528;2023-06-14T08:11:49;3.42;;;1.52;;
27857;SDS011;16852;51.446;6.528;2023-06-14T08:13:50;3.00;;;1.65;;
27857;SDS011;16852;51.446;6.528;2023-06-14T08:15:50;3.97;;;1.73;;
27857;SDS011;16852;51.446;6.528;2023-06-14T08:17:51;2.60;;;1.60;;
27857;SDS011;16852;51.446;6.528;2023-06-14T08:19:52;2.72;;;1.63;;
27857;SDS011;16852;51.446;6.528;2023-06-14T08:21:57;2.90;;;1.33;;
27857;SDS011;16852;51.446;6.528;2023-06-14T08:23:58;2.92;;;1.50;;
27857;SDS011;16852;51.446;6.528;2023-06-14T08:25:59;3.00;;;1.60;;
27857;SDS011;16852;51.446;6.528;2023-06-14T08:28:01;8.27;;;2.13;;
27857;SDS011;16852;51.446;6.528;2023-06-14T08:30:02;2.72;;;1.70;;
27857;SDS011;16852;51.446;6.528;2023-06-14T08:32:03;2.35;;;1.77;;
27857;SDS011;16852;51.446;6.528;2023-06-14T08:34:04;10.38;;;1.95;;
27857;SDS011;16852;51.446;6.528;2023-06-14T08:36:06;4.75;;;1.90;;
27857;SDS011;16852;51.446;6.528;2023-06-14T08:38:06;4.38;;;2.40;;
27857;SDS011;16852;51.446;6.528;2023-06-14T08:40:29;3.50;;;2.00;;
27857;SDS011;16852;51.446;6.528;2023-06-14T08:42:29;2.33;;;1.50;;
27857;SDS011;16852;51.446;6.528;2023-06-14T08:44:31;3.03;;;1.75;;
27857;SDS011;16852;51.446;6.528;2023-06-14T08:46:32;4.38;;;1.85;;
27857;SDS011;16852;51.446;6.528;2023-06-14T08:48:34;4.15;;;1.50;;
27857;SDS011;16852;51.446;6.528;2023-06-14T08:50:34;2.58;;;1.50;;
27857;SDS011;16852;51.446;6.528;2023-06-14T08:52:40;3.55;;;1.60;;
27857;SDS011;16852;51.446;6.528;2023-06-14T08:54:49;3.95;;;1.58;;
27857;SDS011;16852;51.446;6.528;2023-06-14T08:56:50;2.75;;;1.50;;
27857;SDS011;16852;51.446;6.528;2023-06-14T08:58:52;2.67;;;1.63;;
27857;SDS011;16852;51.446;6.528;2023-06-14T09:00:52;3.28;;;1.58;;
27857;SDS011;16852;51.446;6.528;2023-06-14T09:02:53;3.05;;;1.40;;
27857;SDS011;16852;51.446;6.528;2023-06-14T09:04:57;2.05;;;1.50;;
27857;SDS011;16852;51.446;6.528;2023-06-14T09:06:59;3.25;;;1.50;;
27857;SDS011;16852;51.446;6.528;2023-06-14T09:09:00;4.25;;;1.58;;
27857;SDS011;16852;51.446;6.528;2023-06-14T09:11:02;5.72;;;1.60;;
27857;SDS011;16852;51.446;6.528;2023-06-14T09:13:03;1.70;;;1.40;;
27857;SDS011;16852;51.446;6.528;2023-06-14T09:15:04;2.28;;;1.33;;
27857;SDS011;16852;51.446;6.528;2023-06-14T09:17:06;1.88;;;1.40;;
27857;SDS011;16852;51.446;6.528;2023-06-14T09:19:06;2.60;;;1.38;;
27857;SDS011;16852;51.446;6.528;2023-06-14T09:21:08;2.55;;;1.30;;
27857;SDS011;16852;51.446;6.528;2023-06-14T09:23:08;3.05;;;1.55;;
27857;SDS011;16852;51.446;6.528;2023-06-14T09:25:09;3.60;;;1.10;;
27857;SDS011;16852;51.446;6.528;2023-06-14T09:27:14;1.48;;;1.20;;
27857;SDS011;16852;51.446;6.528;2023-06-14T09:29:16;1.58;;;1.42;;
27857;SDS011;16852;51.446;6.528;2023-06-14T09:31:18;2.47;;;1.50;;
27857;SDS011;16852;51.446;6.528;2023-06-14T09:33:19;10.60;;;1.60;;
27857;SDS011;16852;51.446;6.528;2023-06-14T09:35:20;2.17;;;1.50;;
27857;SDS011;16852;51.446;6.528;2023-06-14T09:37:27;3.90;;;1.48;;
27857;SDS011;16852;51.446;6.528;2023-06-14T09:39:29;6.10;;;1.50;;
27857;SDS011;16852;51.446;6.528;2023-06-14T09:41:34;1.90;;;1.70;;
27857;SDS011;16852;51.446;6.528;2023-06-14T09:43:39;2.58;;;1.33;;
27857;SDS011;16852;51.446;6.528;2023-06-14T09:45:40;2.78;;;1.15;;
27857;SDS011;16852;51.446;6.528;2023-06-14T09:47:41;2.28;;;1.30;;
27857;SDS011;16852;51.446;6.528;2023-06-14T09:49:43;2.15;;;1.20;;
27857;SDS011;16852;51.446;6.528;2023-06-14T09:51:45;3.55;;;1.38;;
27857;SDS011;16852;51.446;6.528;2023-06-14T09:53:49;7.85;;;1.80;;
27857;SDS011;16852;51.446;6.528;2023-06-14T09:55:51;2.67;;;1.65;;
27857;SDS011;16852;51.446;6.528;2023-06-14T09:57:55;4.03;;;1.30;;
27857;SDS011;16852;51.446;6.528;2023-06-14T09:59:57;3.90;;;1.67;;
27857;SDS011;16852;51.446;6.528;2023-06-14T10:04:05;5.15;;;2.00;;
27857;SDS011;16852;51.446;6.528;2023-06-14T10:06:07;2.53;;;1.38;;
27857;SDS011;16852;51.446;6.528;2023-06-14T10:08:09;4.55;;;1.75;;
27857;SDS011;16852;51.446;6.528;2023-06-14T10:10:12;2.25;;;1.40;;
27857;SDS011;16852;51.446;6.528;2023-06-14T10:12:13;1.63;;;1.40;;
27857;SDS011;16852;51.446;6.528;2023-06-14T10:14:20;3.38;;;1.60;;
27857;SDS011;16852;51.446;6.528;2023-06-14T10:16:38;1.77;;;1.20;;
27857;SDS011;16852;51.446;6.528;2023-06-14T10:23:28;1.88;;;1.35;;
27857;SDS011;16852;51.446;6.528;2023-06-14T10:25:30;1.30;;;1.15;;
27857;SDS011;16852;51.446;6.528;2023-06-14T10:27:31;2.05;;;1.40;;
27857;SDS011;16852;51.446;6.528;2023-06-14T10:29:32;2.35;;;1.27;;
27857;SDS011;16852;51.446;6.528;2023-06-14T10:31:39;1.30;;;1.20;;
27857;SDS011;16852;51.446;6.528;2023-06-14T10:33:55;3.63;;;1.20;;
27857;SDS011;16852;51.446;6.528;2023-06-14T10:38:11;2.33;;;1.27;;
27857;SDS011;16852;51.446;6.528;2023-06-14T10:40:28;3.88;;;1.40;;
27857;SDS011;16852;51.446;6.528;2023-06-14T10:42:33;2.35;;;1.25;;
27857;SDS011;16852;51.446;6.528;2023-06-14T10:44:38;1.30;;;1.17;;
27857;SDS011;16852;51.446;6.528;2023-06-14T10:46:40;0.93;;;0.82;;
27857;SDS011;16852;51.446;6.528;2023-06-14T10:48:45;4.13;;;1.23;;
27857;SDS011;16852;51.446;6.528;2023-06-14T10:50:47;1.33;;;0.93;;
27857;SDS011;16852;51.446;6.528;2023-06-14T10:52:49;1.58;;;1.17;;
27857;SDS011;16852;51.446;6.528;2023-06-14T10:57:14;1.50;;;0.93;;
27857;SDS011;16852;51.446;6.528;2023-06-14T10:59:15;2.63;;;1.20;;
27857;SDS011;16852;51.446;6.528;2023-06-14T11:01:35;0.90;;;0.70;;
27857;SDS011;16852;51.446;6.528;2023-06-14T11:03:50;4.07;;;1.00;;
27857;SDS011;16852;51.446;6.528;2023-06-14T11:05:56;1.00;;;0.90;;
27857;SDS011;16852;51.446;6.528;2023-06-14T11:10:15;5.95;;;1.42;;
27857;SDS011;16852;51.446;6.528;2023-06-14T11:12:35;2.55;;;1.20;;
27857;SDS011;16852;51.446;6.528;2023-06-14T11:14:38;2.40;;;1.10;;
27857;SDS011;16852;51.446;6.528;2023-06-14T11:16:39;2.10;;;1.17;;
27857;SDS011;16852;51.446;6.528;2023-06-14T11:18:40;5.13;;;1.38;;
27857;SDS011;16852;51.446;6.528;2023-06-14T11:20:41;1.43;;;1.00;;
27857;SDS011;16852;51.446;6.528;2023-06-14T11:22:42;1.17;;;0.90;;
27857;SDS011;16852;51.446;6.528;2023-06-14T11:24:43;1.58;;;1.00;;
27857;SDS011;16852;51.446;6.528;2023-06-14T11:26:46;1.77;;;0.70;;
27857;SDS011;16852;51.446;6.528;2023-06-14T11:30:48;1.13;;;0.77;;
27857;SDS011;16852;51.446;6.528;2023-06-14T11:32:59;2.17;;;0.98;;
27857;SDS011;16852;51.446;6.528;2023-06-14T11:35:00;5.35;;;0.82;;
27857;SDS011;16852;51.446;6.528;2023-06-14T11:37:00;4.85;;;1.00;;
27857;SDS011;16852;51.446;6.528;2023-06-14T11:39:01;2.90;;;1.17;;
27857;SDS011;16852;51.446;6.528;2023-06-14T11:41:03;2.75;;;1.05;;
27857;SDS011;16852;51.446;6.528;2023-06-14T11:43:04;2.97;;;0.85;;
27857;SDS011;16852;51.446;6.528;2023-06-14T11:45:09;8.55;;;1.58;;
27857;SDS011;16852;51.446;6.528;2023-06-14T11:47:11;3.65;;;1.20;;
27857;SDS011;16852;51.446;6.528;2023-06-14T11:49:12;4.32;;;1.08;;
27857;SDS011;16852;51.446;6.528;2023-06-14T11:51:12;1.90;;;1.48;;
27857;SDS011;16852;51.446;6.528;2023-06-14T11:53:13;1.77;;;0.90;;
27857;SDS011;16852;51.446;6.528;2023-06-14T11:55:16;1.75;;;0.90;;
27857;SDS011;16852;51.446;6.528;2023-06-14T11:57:17;1.08;;;0.90;;
27857;SDS011;16852;51.446;6.528;2023-06-14T11:59:18;3.58;;;0.90;;
27857;SDS011;16852;51.446;6.528;2023-06-14T12:01:20;3.25;;;1.05;;
27857;SDS011;16852;51.446;6.528;2023-06-14T12:03:24;2.65;;;1.05;;
27857;SDS011;16852;51.446;6.528;2023-06-14T12:05:27;3.63;;;1.08;;
27857;SDS011;16852;51.446;6.528;2023-06-14T12:07:27;1.67;;;1.10;;
27857;SDS011;16852;51.446;6.528;2023-06-14T12:09:31;1.83;;;1.17;;
27857;SDS011;16852;51.446;6.528;2023-06-14T12:11:34;2.22;;;1.00;;
27857;SDS011;16852;51.446;6.528;2023-06-14T12:15:38;1.83;;;1.10;;
27857;SDS011;16852;51.446;6.528;2023-06-14T12:17:39;1.63;;;0.95;;
27857;SDS011;16852;51.446;6.528;2023-06-14T12:19:42;0.98;;;0.75;;
27857;SDS011;16852;51.446;6.528;2023-06-14T12:21:46;3.10;;;0.90;;
27857;SDS011;16852;51.446;6.528;2023-06-14T12:23:49;1.70;;;1.00;;
27857;SDS011;16852;51.446;6.528;2023-06-14T12:27:53;1.88;;;1.08;;
27857;SDS011;16852;51.446;6.528;2023-06-14T12:30:01;4.88;;;1.20;;
27857;SDS011;16852;51.446;6.528;2023-06-14T12:32:02;2.03;;;0.93;;
27857;SDS011;16852;51.446;6.528;2023-06-14T12:34:03;1.42;;;0.98;;
27857;SDS011;16852;51.446;6.528;2023-06-14T12:36:04;1.77;;;1.10;;
27857;SDS011;16852;51.446;6.528;2023-06-14T12:40:07;3.13;;;1.27;;
27857;SDS011;16852;51.446;6.528;2023-06-14T12:42:08;1.92;;;1.00;;
27857;SDS011;16852;51.446;6.528;2023-06-14T12:44:10;1.25;;;0.70;;
27857;SDS011;16852;51.446;6.528;2023-06-14T12:46:11;1.60;;;1.10;;
27857;SDS011;16852;51.446;6.528;2023-06-14T12:48:11;5.07;;;1.25;;